AirNav   Everest Fuels
 
 844 users online  

95FL Pinellas County Mosquito Control Heliport
Pinellas Park, Florida, USA

GOING TO PINELLAS PARK?


FAA INFORMATION EFFECTIVE 18 JUNE 2020

Location

FAA Identifier: 95FL
Lat/Long: 27-52-33.2100N 082-41-21.6800W
27-52.553500N 082-41.361333W
27.8758917,-82.6893556
(estimated)
Elevation: 10 ft. / 3 m (estimated)
Variation: 02W (1985)
From city: 2 miles SSW of PINELLAS PARK, FL
Time zone: UTC -4 (UTC -5 during Standard Time)
Zip code: 33762

Heliport Operations

Heliport use: Private use. Permission required prior to landing
Activation date: 04/1983
Control tower: no
ARTCC: MIAMI CENTER
FSS: SAINT PETERSBURG FLIGHT SERVICE STATION
Attendance: MON-FRI 0630-1730
Wind indicator: yes
Segmented circle: no

Heliport Communications

WX ASOS at PIE (2.0 nm N): PHONE 727-531-3456
WX AWOS-3P at CLW (7 nm NW): 119.225 (727-449-2184)
WX ASOS at SPG (7 nm SE): 118.875 (727-821-4334)
WX ASOS at TPA (10 nm NE): PHONE 813-873-7228
WX AWOS-3 at TPF (13 nm E): 118.925 (813-251-6824)

Nearby radio navigation aids

VOR radial/distance  VOR name  Freq  Var
PIEr193/1.9ST PETERSBURG VORTAC116.4005W
SRQr352/28.9SARASOTA VOR/DME117.0005W
LALr259/36.4LAKELAND VORTAC116.0001E

 
NDB name  Hdg/Dist  Freq  Var  ID
CAPOK179/7.236005WPI .--. ..

Heliport Services

Runway Information

Helipad H1

Dimensions: 250 x 250 ft. / 76 x 76 m
Surface: asphalt
Latitude: 27-52.553500N
Longitude: 082-41.361333W
Elevation: 10.0 ft.
Traffic pattern: leftleft

Heliport Ownership and Management from official FAA records

Ownership: Publicly-owned
Owner: PINELLAS COUNTY MOSQUITO CTL
4100 118TH AVENUE NORTH
CLEARWATER, FL 33762
Phone (727) 464-7503
Manager: BRIAN LAWTON
4100 118TH AVENUE NORTH
CLEARWATER, FL 33762
Phone 727-464-7503

Heliport Operational Statistics

Aircraft based on the field: 2
Helicopters: 2
    

Additional Remarks

FOR CD CTC TAMPA APCH AT 813-878-2528

Instrument Procedures

There are no published instrument procedures at 95FL.

Some nearby airports with instrument procedures:

KPIE - St Pete-Clearwater International Airport (2 nm N)
KCLW - Clearwater Air Park (7 nm NW)
KSPG - Albert Whitted Airport (7 nm SE)
KMCF - MacDill Air Force Base (9 nm E)
KTPA - Tampa International Airport (10 nm NE)
KTPF - Peter O Knight Airport (13 nm E)
 
Loc | Ops | Rwys | IFR | FBO | Links
Com | Nav | Svcs | Stats | Notes


 
Area around 95FL (Pinellas County Mosquito Control Heliport)
 
Road maps at: MapQuest Bing Google
 
Aerial photo
No photo
 
Sectional chart

 
Airport distance calculator
Flying to Pinellas County Mosquito Control Heliport? Find the distance to fly.

From to 95FL

Sunrise and sunset
Times for 05-Jul-2020
 Local
(UTC-4)
 Zulu
(UTC)
Morning civil twilight06:1510:15
Sunrise06:4110:41
Sunset20:3000:30
Evening civil twilight20:5600:56

Current date and time
Zulu (UTC)  05-Jul-2020 14:05:54
Local (UTC-4)  05-Jul-2020 10:05:54
 
METAR
KPIE 
2nm N 
051353Z 17011KT 10SM FEW025 31/24 A2998 RMK AO2 SLP150 T03060239
KCLW 
7nm NW 
051355Z AUTO 20007KT 10SM SCT028 30/23 A2997 RMK AO2 PWINO
KSPG 
7nm SE 
051353Z 17014KT 10SM CLR 28/24 A2996 RMK AO2 SLP145 T02830244
KMCF 
9nm E 
051356Z AUTO 16011KT 10SM FEW170 FEW190 29/24 A2998 RMK AO2 SLP155 T02860235 FZRANO $
KTPA 
10nm NE 
051353Z 19011KT 10SM FEW032 SCT080 BKN180 BKN300 31/22 A2998 RMK AO2 SLP151 TCU DSNT SE-S T03060217
KTPF 
13nm E 
051355Z AUTO 18009KT 10SM SCT080 OVC095 29/26 A2999 RMK AO2
KVDF 
20nm NE 
051355Z AUTO 19006KT 175V245 10SM CLR 30/23 A2999 RMK AO2
TAF
KPIE 
2nm N 
051132Z 0512/0612 17006KT P6SM VCTS SCT030CB SCT250 FM051500 24008KT P6SM VCSH SCT030 BKN100 FM052100 25009KT P6SM SCT030 BKN250 FM060300 19004KT P6SM SCT030 BKN250
KMCF 
9nm E 
051000Z 0510/0616 VRB06KT 9999 VCTS SCT040CB QNH2990INS TEMPO 0514/0600 VRB15G20KT 9999 NSW SCT026 BKN040 OVC055 BECMG 0609/0610 18006KT 8000 -SHRA BKN026 QNH2994INS TEMPO 0609/0614 VRB20G25KT 8000 -TSRA BKN026CB OVC040 BECMG 0614/0615 20010G15KT 9000 -SHRA BKN027 QNH3000INS TEMPO 0614/0615 20012KT 9999 NSW OVC040 TX29/0519Z TN26/0511Z
KTPA 
10nm NE 
051132Z 0512/0618 17007KT P6SM VCTS SCT030CB BKN250 FM051500 23008KT P6SM VCSH SCT030 BKN100 FM052100 24010KT P6SM SCT030 BKN250 FM060300 VRB04KT P6SM SCT030 BKN250
NOTAMs
Click for the latest NOTAMs
NOTAMs are issued by the DoD/FAA and will open in a separate window not controlled by AirNav.

 

 
 

Would you like to see your business listed on this page?

 If your business provides an interesting product or service to pilots, flight crews, aircraft, or users of the Pinellas County Mosquito Control Heliport, you should consider listing it here.  To start the listing process, click on the button below
 
Add a business
 

Other Pages about Pinellas County Mosquito Control Heliport

Update a link
 
Copyright © AirNav, LLC. All rights reserved. Privacy Policy  Contact